Time;durP1;ratioP1;P1;durP2;ratioP2;P2;SDS_P1;SDS_P2;PMS_P1;PMS_P2;Temp;Humidity;BMP_temperature;BMP_pressure;BME280_temperature;BME280_humidity;BME280_pressure;Samples;Min_cycle;Max_cycle;Signal;HPM_P1;HPM_P2
2024/02/18 00:00:59;;;;;;;17.45;8.20;;;;;;;-141.50;100.00;63355.56;4991532;28;20046;-79
2024/02/18 00:03:26;;;;;;;19.20;8.55;;;;;;;-141.50;100.00;63355.56;4985191;28;20732;-78
2024/02/18 00:05:54;;;;;;;16.75;8.07;;;;;;;-141.50;100.00;63355.56;5008766;28;20052;-78
2024/02/18 00:08:21;;;;;;;16.35;7.72;;;;;;;-141.50;100.00;63355.56;5007925;28;20116;-79
2024/02/18 00:10:48;;;;;;;17.27;7.63;;;;;;;-141.50;100.00;63355.56;4992462;28;20045;-78
2024/02/18 00:13:15;;;;;;;18.60;7.65;;;;;;;-141.50;100.00;63355.56;5007168;28;20716;-78
2024/02/18 00:15:44;;;;;;;13.90;7.13;;;;;;;-141.50;100.00;63355.56;4991680;28;20073;-78
2024/02/18 00:18:11;;;;;;;18.20;7.75;;;;;;;-141.50;100.00;63355.56;5009826;28;20056;-79
2024/02/18 00:20:38;;;;;;;15.70;7.68;;;;;;;-141.50;100.00;63355.56;5013392;28;20125;-79
2024/02/18 00:23:04;;;;;;;15.57;7.25;;;;;;;-141.50;100.00;63355.56;5011151;28;20054;-79
2024/02/18 00:25:31;;;;;;;21.48;7.82;;;;;;;-141.50;100.00;63355.56;5012933;28;20120;-78
2024/02/18 00:27:58;;;;;;;12.07;6.47;;;;;;;-141.50;100.00;63355.56;4994566;28;20100;-78
2024/02/18 00:30:26;;;;;;;15.85;7.70;;;;;;;-141.50;100.00;63355.56;4979277;28;20050;-79
2024/02/18 00:32:53;;;;;;;14.10;6.57;;;;;;;-141.50;100.00;63355.56;4995831;28;20050;-79
2024/02/18 00:35:20;;;;;;;12.32;6.13;;;;;;;-141.50;100.00;63355.56;4986142;28;20062;-78
2024/02/18 00:37:47;;;;;;;12.10;5.63;;;;;;;-141.50;100.00;63355.56;4996256;28;20510;-78
2024/02/18 00:40:14;;;;;;;13.07;5.30;;;;;;;-141.50;100.00;63355.56;4993911;28;20129;-78
2024/02/18 00:42:41;;;;;;;13.40;5.95;;;;;;;-141.50;100.00;63355.56;5013546;28;20424;-78
2024/02/18 00:45:08;;;;;;;12.77;5.70;;;;;;;-141.50;100.00;63355.56;5015689;28;20049;-79
2024/02/18 00:47:35;;;;;;;12.55;5.90;;;;;;;-141.50;100.00;63355.56;5013196;28;20057;-78
2024/02/18 00:50:01;;;;;;;10.90;5.72;;;;;;;-141.50;100.00;63355.56;5001767;28;20046;-79
2024/02/18 00:52:28;;;;;;;12.57;5.40;;;;;;;-141.50;100.00;63355.56;4999356;28;20045;-78
2024/02/18 00:54:55;;;;;;;12.70;6.07;;;;;;;-141.50;100.00;63355.56;4996556;28;20056;-78
2024/02/18 00:57:22;;;;;;;11.60;5.45;;;;;;;-141.50;100.00;63355.56;4992919;28;20565;-78
2024/02/18 00:59:48;;;;;;;12.05;5.80;;;;;;;-141.50;100.00;63355.56;4994375;28;20052;-78
2024/02/18 01:02:15;;;;;;;15.68;7.80;;;;;;;-141.50;100.00;63355.56;5010065;28;20442;-79
2024/02/18 01:04:42;;;;;;;15.55;7.20;;;;;;;-141.50;100.00;63355.56;5013404;28;20125;-79
2024/02/18 01:07:09;;;;;;;11.75;5.97;;;;;;;-141.50;100.00;63355.56;5011894;28;20065;-78
2024/02/18 01:09:36;;;;;;;10.60;5.32;;;;;;;-141.50;100.00;63355.56;5017736;28;20052;-79
2024/02/18 01:12:04;;;;;;;12.77;5.78;;;;;;;-141.50;100.00;63355.56;4990196;28;20038;-79
2024/02/18 01:14:30;;;;;;;10.30;5.20;;;;;;;-141.50;100.00;63355.56;5012792;28;20092;-79
2024/02/18 01:16:58;;;;;;;12.00;5.88;;;;;;;-141.50;100.00;63355.56;4996003;28;20049;-79
2024/02/18 01:19:25;;;;;;;11.73;5.65;;;;;;;-141.50;100.00;63355.56;5011635;28;20141;-78
2024/02/18 01:21:52;;;;;;;12.23;6.20;;;;;;;-141.50;100.00;63355.56;5012917;28;20088;-79
2024/02/18 01:24:19;;;;;;;12.90;5.63;;;;;;;-141.50;100.00;63355.56;5010802;28;20064;-78
2024/02/18 01:26:46;;;;;;;17.67;6.40;;;;;;;-141.50;100.00;63355.56;4993160;28;20041;-78
2024/02/18 01:29:12;;;;;;;13.32;6.45;;;;;;;-141.50;100.00;63355.56;5010489;28;20046;-79
2024/02/18 01:31:39;;;;;;;16.23;6.65;;;;;;;-141.50;100.00;63355.56;5012695;28;20657;-78
2024/02/18 01:34:06;;;;;;;12.65;6.47;;;;;;;-141.50;100.00;63355.56;4992647;28;20046;-79
2024/02/18 01:36:33;;;;;;;11.10;5.97;;;;;;;-141.50;100.00;63355.56;4991174;28;20047;-79
2024/02/18 01:39:00;;;;;;;17.55;6.68;;;;;;;-141.50;100.00;63355.56;4990682;28;20041;-79
2024/02/18 01:41:26;;;;;;;13.15;6.28;;;;;;;-141.50;100.00;63355.56;5005475;28;20500;-79
2024/02/18 01:43:53;;;;;;;15.13;6.07;;;;;;;-141.50;100.00;63355.56;4976984;28;20045;-79
2024/02/18 01:46:21;;;;;;;11.93;5.97;;;;;;;-141.50;100.00;63355.56;5011109;28;20041;-79
2024/02/18 01:48:48;;;;;;;12.63;5.85;;;;;;;-141.50;100.00;63355.56;4995459;28;20141;-79
2024/02/18 01:51:15;;;;;;;13.65;6.57;;;;;;;-141.50;100.00;63355.56;5009783;28;20109;-80
2024/02/18 01:53:43;;;;;;;14.73;7.43;;;;;;;-141.50;100.00;63355.56;5001993;28;20054;-79
2024/02/18 01:56:12;;;;;;;15.35;6.43;;;;;;;-141.50;100.00;63355.56;5010468;28;20038;-79
2024/02/18 01:58:38;;;;;;;18.35;7.90;;;;;;;-141.50;100.00;63355.56;5011672;28;20049;-80
2024/02/18 02:01:05;;;;;;;20.90;9.05;;;;;;;-141.50;100.00;63355.56;4993525;28;20057;-81
2024/02/18 02:03:35;;;;;;;14.43;8.05;;;;;;;-141.50;100.00;63355.56;4991241;28;20046;-78
2024/02/18 02:06:03;;;;;;;23.90;10.23;;;;;;;-141.50;100.00;63355.56;5011497;28;20138;-79
2024/02/18 02:08:31;;;;;;;14.77;7.65;;;;;;;-141.50;100.00;63355.56;5011642;28;20046;-79
2024/02/18 02:10:58;;;;;;;13.38;6.60;;;;;;;-141.50;100.00;63355.56;4993394;28;20086;-78
2024/02/18 02:13:25;;;;;;;16.35;6.38;;;;;;;-141.50;100.00;63355.56;4991488;28;20112;-79
2024/02/18 02:15:52;;;;;;;15.10;6.95;;;;;;;-141.50;100.00;63355.56;4993373;28;20057;-77
2024/02/18 02:18:19;;;;;;;11.82;6.32;;;;;;;-141.50;100.00;63355.56;4991783;28;20054;-78
2024/02/18 02:20:46;;;;;;;15.05;6.13;;;;;;;-141.50;100.00;63355.56;5010563;28;20068;-80
2024/02/18 02:23:13;;;;;;;12.65;6.53;;;;;;;-141.50;100.00;63355.56;5008673;28;20065;-79
2024/02/18 02:25:40;;;;;;;13.23;6.72;;;;;;;-141.50;100.00;63355.56;5010139;28;20598;-79
2024/02/18 02:28:20;;;;;;;17.02;6.97;;;;;;;-141.50;100.00;63355.56;4987684;28;20050;-78
2024/02/18 02:30:48;;;;;;;17.65;7.35;;;;;;;-141.50;100.00;63355.56;4991602;28;20060;-78
2024/02/18 02:33:18;;;;;;;14.35;6.65;;;;;;;-141.50;100.00;63355.56;4988321;28;20538;-78
2024/02/18 02:35:46;;;;;;;15.88;6.57;;;;;;;-141.50;100.00;63355.56;4994259;28;20125;-78
2024/02/18 02:38:13;;;;;;;12.30;6.50;;;;;;;-141.50;100.00;63355.56;5008874;28;20053;-78
2024/02/18 02:40:41;;;;;;;11.80;5.97;;;;;;;-141.50;100.00;63355.56;4995306;28;20112;-78
2024/02/18 02:43:07;;;;;;;13.60;6.60;;;;;;;-141.50;100.00;63355.56;5007142;28;20131;-79
2024/02/18 02:45:34;;;;;;;10.88;6.22;;;;;;;-141.50;100.00;63355.56;4994254;28;20313;-78
2024/02/18 02:48:01;;;;;;;17.27;6.90;;;;;;;-141.50;100.00;63355.56;5010777;28;20135;-79
2024/02/18 02:50:28;;;;;;;14.32;6.40;;;;;;;-141.50;100.00;63355.56;5009748;28;20072;-80
2024/02/18 02:52:55;;;;;;;12.00;6.10;;;;;;;-141.50;100.00;63355.56;4974668;28;20549;-78
2024/02/18 02:55:22;;;;;;;11.43;5.63;;;;;;;-141.50;100.00;63355.56;5007534;28;20062;-80
2024/02/18 02:57:51;;;;;;;11.82;5.45;;;;;;;-141.50;100.00;63355.56;4980782;28;20057;-79
2024/02/18 03:00:18;;;;;;;12.07;5.40;;;;;;;-141.50;100.00;63355.56;5007573;28;20054;-78
2024/02/18 03:02:45;;;;;;;12.68;4.93;;;;;;;-141.50;100.00;63355.56;4992527;28;20660;-78
2024/02/18 03:05:11;;;;;;;11.73;5.15;;;;;;;-141.50;100.00;63355.56;5000565;28;20125;-79
2024/02/18 03:07:38;;;;;;;11.05;5.50;;;;;;;-141.50;100.00;63355.56;5009032;28;20077;-77
2024/02/18 03:10:06;;;;;;;15.57;5.13;;;;;;;-141.50;100.00;63355.56;5008625;28;20568;-76
2024/02/18 03:12:32;;;;;;;11.93;5.13;;;;;;;-141.50;100.00;63355.56;5007398;28;20058;-77
2024/02/18 03:15:00;;;;;;;14.40;5.80;;;;;;;-141.50;100.00;63355.56;4990857;28;20050;-76
2024/02/18 03:17:26;;;;;;;13.73;6.07;;;;;;;-141.50;100.00;63355.56;5007852;28;20755;-79
2024/02/18 03:19:54;;;;;;;16.83;5.97;;;;;;;-141.50;100.00;63355.56;5009216;28;20058;-79
2024/02/18 03:22:23;;;;;;;15.98;5.68;;;;;;;-141.50;100.00;63355.56;4997436;28;20053;-79
2024/02/18 03:24:50;;;;;;;15.63;6.10;;;;;;;-141.50;100.00;63355.56;4991302;28;20092;-78
2024/02/18 03:27:17;;;;;;;11.80;5.80;;;;;;;-141.50;100.00;63355.56;4990160;28;20107;-79
2024/02/18 03:29:45;;;;;;;14.52;6.38;;;;;;;-141.50;100.00;63355.56;5009300;28;20503;-79
2024/02/18 03:32:13;;;;;;;15.80;5.72;;;;;;;-141.50;100.00;63355.56;5009757;28;20054;-78
2024/02/18 03:34:43;;;;;;;14.98;6.03;;;;;;;-141.50;100.00;63355.56;5007401;28;20046;-78
2024/02/18 03:37:10;;;;;;;14.07;5.95;;;;;;;-141.50;100.00;63355.56;4990167;28;20141;-79
2024/02/18 03:39:37;;;;;;;11.38;5.05;;;;;;;-141.50;100.00;63355.56;4990660;28;20074;-78
2024/02/18 03:42:05;;;;;;;12.93;5.63;;;;;;;-141.50;100.00;63355.56;5008592;28;20141;-78
2024/02/18 03:44:35;;;;;;;11.60;5.28;;;;;;;-141.50;100.00;63355.56;5008070;28;20060;-79
2024/02/18 03:47:01;;;;;;;13.20;5.28;;;;;;;-141.50;100.00;63355.56;4991026;28;20069;-79
2024/02/18 03:49:29;;;;;;;13.50;5.18;;;;;;;-141.50;100.00;63355.56;5001377;28;20404;-79
2024/02/18 03:51:56;;;;;;;16.88;6.18;;;;;;;-141.50;100.00;63355.56;4994384;28;20056;-79
2024/02/18 03:54:23;;;;;;;11.45;5.32;;;;;;;-141.50;100.00;63355.56;5012072;28;20153;-78
2024/02/18 03:56:50;;;;;;;12.05;6.03;;;;;;;-141.50;100.00;63355.56;5014334;28;20054;-79
2024/02/18 03:59:18;;;;;;;13.65;5.82;;;;;;;-141.50;100.00;63355.56;5010482;28;20068;-78
2024/02/18 04:01:45;;;;;;;14.57;6.13;;;;;;;-141.50;100.00;63355.56;4995938;28;20046;-79
2024/02/18 04:04:12;;;;;;;17.33;6.72;;;;;;;-141.50;100.00;63355.56;5012868;28;20066;-78
2024/02/18 04:06:39;;;;;;;17.30;6.22;;;;;;;-141.50;100.00;63355.56;5012681;28;20508;-79
2024/02/18 04:09:06;;;;;;;16.85;6.40;;;;;;;-141.50;100.00;63355.56;5012028;28;20107;-79
2024/02/18 04:11:33;;;;;;;17.95;6.72;;;;;;;-141.50;100.00;63355.56;5012574;28;20053;-79
2024/02/18 04:14:00;;;;;;;16.20;6.57;;;;;;;-141.50;100.00;63355.56;4995034;28;20064;-79
2024/02/18 04:16:27;;;;;;;20.38;6.78;;;;;;;-141.50;100.00;63355.56;4978030;28;20058;-78
2024/02/18 04:18:53;;;;;;;13.05;5.88;;;;;;;-141.50;100.00;63355.56;4995601;28;20358;-78
2024/02/18 04:21:21;;;;;;;17.77;6.95;;;;;;;-141.50;100.00;63355.56;4994780;28;20145;-78
2024/02/18 04:23:48;;;;;;;14.40;6.30;;;;;;;-141.50;100.00;63355.56;4994912;28;20086;-78
2024/02/18 04:26:15;;;;;;;14.45;6.43;;;;;;;-141.50;100.00;63355.56;4977608;28;20061;-78
2024/02/18 04:28:43;;;;;;;17.17;6.72;;;;;;;-141.50;100.00;63355.56;5017078;28;20057;-79
2024/02/18 04:31:10;;;;;;;17.92;6.97;;;;;;;-141.50;100.00;63355.56;5013319;28;20074;-79
2024/02/18 04:33:37;;;;;;;13.13;6.22;;;;;;;-141.50;100.00;63355.56;4990190;28;20505;-78
2024/02/18 04:36:04;;;;;;;16.27;6.85;;;;;;;-141.50;100.00;63355.56;4991008;28;20061;-77
2024/02/18 04:38:31;;;;;;;14.60;6.47;;;;;;;-141.50;100.00;63355.56;5009093;28;20073;-77
2024/02/18 04:40:58;;;;;;;16.08;6.57;;;;;;;-141.50;100.00;63355.56;4994306;28;20052;-79
2024/02/18 04:43:24;;;;;;;17.08;7.13;;;;;;;-141.50;100.00;63355.56;5009652;28;20050;-78
2024/02/18 04:45:51;;;;;;;17.50;6.68;;;;;;;-141.50;100.00;63355.56;5011474;28;20054;-78
2024/02/18 04:48:18;;;;;;;15.55;6.15;;;;;;;-141.50;100.00;63355.56;5010007;28;20056;-78
2024/02/18 04:50:44;;;;;;;19.67;7.35;;;;;;;-141.50;100.00;63355.56;4994762;28;20061;-80
2024/02/18 04:53:11;;;;;;;19.90;7.22;;;;;;;-141.50;100.00;63355.56;5011005;28;20054;-79
2024/02/18 04:55:38;;;;;;;19.65;7.40;;;;;;;-141.50;100.00;63355.56;4989192;28;20554;-80
2024/02/18 04:58:05;;;;;;;21.08;7.82;;;;;;;-141.50;100.00;63355.56;5008071;28;20060;-79
2024/02/18 05:00:31;;;;;;;15.15;6.28;;;;;;;-141.50;100.00;63355.56;5010215;28;20188;-79
2024/02/18 05:02:58;;;;;;;17.50;6.55;;;;;;;-141.50;100.00;63355.56;5010701;28;20128;-79
2024/02/18 05:05:25;;;;;;;17.20;7.82;;;;;;;-141.50;100.00;63355.56;5010640;28;21758;-78
2024/02/18 05:08:01;;;;;;;13.50;6.55;;;;;;;-141.50;100.00;63355.56;4996061;28;20058;-79
2024/02/18 05:10:27;;;;;;;21.55;6.88;;;;;;;-141.50;100.00;63355.56;5009082;28;20042;-79
2024/02/18 05:12:54;;;;;;;13.43;6.30;;;;;;;-141.50;100.00;63355.56;5009929;28;20144;-79
2024/02/18 05:15:21;;;;;;;15.52;6.68;;;;;;;-141.50;100.00;63355.56;5009508;28;20065;-78
2024/02/18 05:17:48;;;;;;;16.00;6.38;;;;;;;-141.50;100.00;63355.56;4993344;28;20053;-78
2024/02/18 05:20:15;;;;;;;15.13;6.18;;;;;;;-141.50;100.00;63355.56;5010134;28;20053;-78
2024/02/18 05:22:43;;;;;;;18.10;6.78;;;;;;;-141.50;100.00;63355.56;5010447;28;20053;-79
2024/02/18 05:25:10;;;;;;;14.95;6.82;;;;;;;-141.50;100.00;63355.56;5013901;28;20123;-78
2024/02/18 05:27:36;;;;;;;18.50;7.10;;;;;;;-141.50;100.00;63355.56;4997087;28;20049;-78
2024/02/18 05:30:04;;;;;;;15.23;7.05;;;;;;;-141.50;100.00;63355.56;5017550;28;20057;-78
2024/02/18 05:32:30;;;;;;;15.15;6.80;;;;;;;-141.50;100.00;63355.56;5009118;28;20046;-79
2024/02/18 05:34:57;;;;;;;16.90;6.13;;;;;;;-141.50;100.00;63355.56;4991268;28;20107;-78
2024/02/18 05:37:24;;;;;;;15.73;6.80;;;;;;;-141.50;100.00;63355.56;4974364;28;20053;-78
2024/02/18 05:39:51;;;;;;;13.68;6.50;;;;;;;-141.50;100.00;63355.56;4991786;28;20104;-77
2024/02/18 05:42:18;;;;;;;18.05;6.72;;;;;;;-141.50;100.00;63355.56;4971992;28;20522;-77
2024/02/18 05:44:44;;;;;;;18.73;6.47;;;;;;;-141.50;100.00;63355.56;5008028;28;20064;-79
2024/02/18 05:47:11;;;;;;;15.10;6.70;;;;;;;-141.50;100.00;63355.56;5006010;28;20054;-78
2024/02/18 05:49:38;;;;;;;15.95;6.50;;;;;;;-141.50;100.00;63355.56;5004592;28;20070;-76
2024/02/18 05:52:10;;;;;;;16.77;6.40;;;;;;;-141.50;100.00;63355.56;4982138;28;20069;-78
2024/02/18 05:54:37;;;;;;;13.48;6.60;;;;;;;-141.50;100.00;63355.56;4974438;28;20045;-78
2024/02/18 05:57:05;;;;;;;18.00;6.93;;;;;;;-141.50;100.00;63355.56;4981573;28;20081;-78
2024/02/18 05:59:32;;;;;;;18.92;7.00;;;;;;;-141.50;100.00;63355.56;4989568;28;20052;-78
2024/02/18 06:01:59;;;;;;;16.88;7.55;;;;;;;-141.50;100.00;63355.56;4987596;28;20391;-77
2024/02/18 06:04:26;;;;;;;15.98;6.93;;;;;;;-141.50;100.00;63355.56;5007289;28;20037;-77
2024/02/18 06:06:53;;;;;;;15.63;6.50;;;;;;;-141.50;100.00;63355.56;5008166;28;20061;-77
2024/02/18 06:09:20;;;;;;;14.35;6.50;;;;;;;-141.50;100.00;63355.56;4988682;28;20053;-78
2024/02/18 06:11:48;;;;;;;17.77;6.95;;;;;;;-141.50;100.00;63355.56;5007877;28;20057;-77
2024/02/18 06:14:15;;;;;;;14.38;6.32;;;;;;;-141.50;100.00;63355.56;4990242;28;20079;-78
2024/02/18 06:16:41;;;;;;;15.10;6.50;;;;;;;-141.50;100.00;63355.56;5007596;28;20094;-78
2024/02/18 06:19:08;;;;;;;18.13;7.45;;;;;;;-141.50;100.00;63355.56;5007207;28;20062;-78
2024/02/18 06:21:41;;;;;;;21.35;8.18;;;;;;;-141.50;100.00;63355.56;4992542;28;20308;-78
2024/02/18 06:24:08;;;;;;;15.45;6.88;;;;;;;-141.50;100.00;63355.56;5007438;28;20049;-78
2024/02/18 06:26:39;;;;;;;14.88;6.95;;;;;;;-141.50;100.00;63355.56;4982170;28;20095;-78
2024/02/18 06:29:06;;;;;;;16.73;7.15;;;;;;;-141.50;100.00;63355.56;5008384;28;20304;-78
2024/02/18 06:31:33;;;;;;;17.73;7.13;;;;;;;-141.50;100.00;63355.56;5007854;28;20132;-78
2024/02/18 06:34:00;;;;;;;18.60;6.57;;;;;;;-141.50;100.00;63355.56;5008188;28;20058;-77
2024/02/18 06:36:28;;;;;;;19.40;7.63;;;;;;;-141.50;100.00;63355.56;4989501;28;20042;-77
2024/02/18 06:38:55;;;;;;;15.77;7.15;;;;;;;-141.50;100.00;63355.56;4989555;28;20058;-77
2024/02/18 06:41:24;;;;;;;17.42;7.07;;;;;;;-141.50;100.00;63355.56;4997824;28;20062;-77
2024/02/18 06:43:51;;;;;;;20.75;7.32;;;;;;;-141.50;100.00;63355.56;4988581;28;20077;-77
2024/02/18 06:46:18;;;;;;;14.98;6.50;;;;;;;-141.50;100.00;63355.56;4990777;28;20404;-78
2024/02/18 06:48:45;;;;;;;18.05;7.30;;;;;;;-141.50;100.00;63355.56;5005760;28;20049;-76
2024/02/18 06:51:12;;;;;;;20.40;7.38;;;;;;;-141.50;100.00;63355.56;4987130;28;20330;-77
2024/02/18 06:53:39;;;;;;;17.92;7.22;;;;;;;-141.50;100.00;63355.56;4995508;28;20053;-77
2024/02/18 06:56:06;;;;;;;18.45;8.02;;;;;;;-141.50;100.00;63355.56;4988610;28;20478;-78
2024/02/18 06:58:32;;;;;;;22.55;7.80;;;;;;;-141.50;100.00;63355.56;5007103;28;20128;-78
2024/02/18 07:00:59;;;;;;;18.05;7.70;;;;;;;-141.50;100.00;63355.56;4991534;28;20065;-78
2024/02/18 07:03:26;;;;;;;20.50;8.32;;;;;;;-141.50;100.00;63355.56;4987942;28;20123;-77
2024/02/18 07:05:53;;;;;;;19.52;7.90;;;;;;;-141.50;100.00;63355.56;4990127;28;20128;-78
2024/02/18 07:08:19;;;;;;;20.77;8.52;;;;;;;-141.50;100.00;63355.56;5007183;28;20056;-78
2024/02/18 07:10:46;;;;;;;19.30;7.80;;;;;;;-141.50;100.00;63355.56;5007977;28;20504;-78
2024/02/18 07:13:13;;;;;;;20.08;8.02;;;;;;;-141.50;100.00;63355.56;4987387;28;20053;-77
2024/02/18 07:15:40;;;;;;;19.42;8.55;;;;;;;-141.50;100.00;63355.56;4988445;28;20053;-77
2024/02/18 07:18:06;;;;;;;19.80;8.25;;;;;;;-141.50;100.00;63355.56;5006596;28;20503;-77
2024/02/18 07:20:34;;;;;;;22.38;9.38;;;;;;;-141.50;100.00;63355.56;4974118;28;20415;-79
2024/02/18 07:23:01;;;;;;;21.65;8.45;;;;;;;-141.50;100.00;63355.56;4972348;28;20475;-78
2024/02/18 07:25:28;;;;;;;24.65;10.13;;;;;;;-141.50;100.00;63355.56;4989098;28;20406;-78
2024/02/18 07:27:55;;;;;;;22.02;9.00;;;;;;;-141.50;100.00;63355.56;5007031;28;20057;-77
2024/02/18 07:30:21;;;;;;;24.55;10.18;;;;;;;-141.50;100.00;63355.56;4989470;28;20246;-77
2024/02/18 07:32:48;;;;;;;33.30;12.25;;;;;;;-141.50;100.00;63355.56;5007510;28;20112;-75
2024/02/18 07:35:16;;;;;;;23.73;10.70;;;;;;;-141.50;100.00;63355.56;5007884;28;20064;-79
2024/02/18 07:37:42;;;;;;;31.15;12.23;;;;;;;-141.50;100.00;63355.56;4995585;28;20042;-78
2024/02/18 07:40:10;;;;;;;30.27;12.32;;;;;;;-141.50;100.00;63355.56;5005796;28;20049;-78
2024/02/18 07:42:37;;;;;;;30.42;13.30;;;;;;;-141.50;100.00;63355.56;5007275;28;20053;-78
2024/02/18 07:45:05;;;;;;;35.35;12.88;;;;;;;-141.50;100.00;63355.56;4990780;28;20528;-78
2024/02/18 07:47:32;;;;;;;34.85;13.57;;;;;;;-141.50;100.00;63355.56;5007245;28;20076;-78
2024/02/18 07:49:59;;;;;;;40.47;15.88;;;;;;;-141.50;100.00;63355.56;4985296;28;20258;-78
2024/02/18 07:52:25;;;;;;;42.67;16.38;;;;;;;-141.50;100.00;63355.56;5006598;28;20049;-78
2024/02/18 07:54:52;;;;;;;32.85;13.82;;;;;;;-141.50;100.00;63355.56;4990756;28;20617;-78
2024/02/18 07:57:20;;;;;;;30.27;12.18;;;;;;;-141.50;100.00;63355.56;5007100;28;20137;-78
2024/02/18 07:59:47;;;;;;;26.00;11.35;;;;;;;-141.50;100.00;63355.56;5007467;28;20054;-77
2024/02/18 08:02:14;;;;;;;28.50;11.57;;;;;;;-141.50;100.00;63355.56;4988416;28;20054;-78
2024/02/18 08:04:40;;;;;;;31.55;12.68;;;;;;;-141.50;100.00;63355.56;5005798;28;20053;-78
2024/02/18 08:07:07;;;;;;;41.78;15.65;;;;;;;-141.50;100.00;63355.56;4989475;28;20065;-77
2024/02/18 08:09:34;;;;;;;35.42;14.80;;;;;;;-141.50;100.00;63355.56;4986337;28;20137;-79
2024/02/18 08:12:01;;;;;;;27.58;11.70;;;;;;;-141.50;100.00;63355.56;4983239;28;20054;-78
2024/02/18 08:14:27;;;;;;;28.40;12.00;;;;;;;-141.50;100.00;63355.56;5006770;28;20114;-77
2024/02/18 08:16:56;;;;;;;28.55;12.80;;;;;;;-141.50;100.00;63355.56;5006154;28;20057;-77
2024/02/18 08:19:23;;;;;;;37.72;13.85;;;;;;;-141.50;100.00;63355.56;5004499;28;20685;-77
2024/02/18 08:21:51;;;;;;;29.67;12.20;;;;;;;-141.50;100.00;63355.56;4984231;28;20584;-77
2024/02/18 08:24:18;;;;;;;41.20;15.93;;;;;;;-141.50;100.00;63355.56;4986900;28;20570;-77
2024/02/18 08:26:45;;;;;;;26.95;12.23;;;;;;;-141.50;100.00;63355.56;4987145;28;20307;-77
2024/02/18 08:29:12;;;;;;;21.92;9.77;;;;;;;-141.50;100.00;63355.56;5002972;28;20058;-77
2024/02/18 08:31:38;;;;;;;21.55;9.80;;;;;;;-141.50;100.00;63355.56;4985924;28;20137;-76
2024/02/18 08:34:05;;;;;;;21.70;9.90;;;;;;;-141.50;100.00;63355.56;5004446;28;20060;-76
2024/02/18 08:36:32;;;;;;;28.58;12.13;;;;;;;-141.50;100.00;63355.56;5006997;28;20054;-77
2024/02/18 08:38:59;;;;;;;30.45;11.82;;;;;;;-141.50;100.00;63355.56;4991162;28;20074;-77
2024/02/18 08:41:26;;;;;;;55.38;16.02;;;;;;;-141.50;100.00;63355.56;4998868;28;20057;-77
2024/02/18 08:43:53;;;;;;;62.55;18.90;;;;;;;-141.50;100.00;63355.56;5010244;28;20068;-77
2024/02/18 08:46:19;;;;;;;32.67;11.13;;;;;;;-141.50;100.00;63355.56;4999051;28;20183;-77
2024/02/18 08:48:46;;;;;;;23.08;9.98;;;;;;;-141.50;100.00;63355.56;4990499;28;20496;-76
2024/02/18 08:51:13;;;;;;;22.67;8.68;;;;;;;-141.50;100.00;63355.56;5010061;28;20542;-77
2024/02/18 08:53:41;;;;;;;14.32;6.65;;;;;;;-141.50;100.00;63355.56;4991397;28;20100;-77
2024/02/18 08:56:09;;;;;;;14.32;6.47;;;;;;;-141.50;100.00;63355.56;4997817;28;20054;-75
2024/02/18 08:58:36;;;;;;;12.10;6.38;;;;;;;-141.50;100.00;63355.56;5007270;28;20040;-78
2024/02/18 09:01:03;;;;;;;13.93;6.70;;;;;;;-141.50;100.00;63355.56;5010384;28;20423;-78
2024/02/18 09:03:31;;;;;;;16.15;6.32;;;;;;;-141.50;100.00;63355.56;4996442;28;20112;-78
2024/02/18 09:05:58;;;;;;;16.40;6.85;;;;;;;-141.50;100.00;63355.56;5010692;28;20131;-77
2024/02/18 09:08:25;;;;;;;11.48;5.82;;;;;;;-141.50;100.00;63355.56;5008412;28;21627;-78
2024/02/18 09:10:54;;;;;;;16.25;5.78;;;;;;;-141.50;100.00;63355.56;4992423;28;20046;-78
2024/02/18 09:13:21;;;;;;;13.50;6.28;;;;;;;-141.50;100.00;63355.56;5009111;28;20050;-77
2024/02/18 09:15:48;;;;;;;13.82;6.03;;;;;;;-141.50;100.00;63355.56;5011093;28;20050;-78
2024/02/18 09:18:15;;;;;;;11.25;5.22;;;;;;;-141.50;100.00;63355.56;5012009;28;20062;-77
2024/02/18 09:20:42;;;;;;;9.88;5.20;;;;;;;-141.50;100.00;63355.56;4993982;28;20129;-78
2024/02/18 09:23:08;;;;;;;10.23;5.32;;;;;;;-141.50;100.00;63355.56;4993336;28;20058;-76
2024/02/18 09:25:37;;;;;;;10.52;5.30;;;;;;;-141.50;100.00;63355.56;5011220;28;20042;-78
2024/02/18 09:28:04;;;;;;;12.02;5.07;;;;;;;-141.50;100.00;63355.56;5009800;28;20060;-77
2024/02/18 09:30:31;;;;;;;14.30;5.10;;;;;;;-141.50;100.00;63355.56;5019069;28;20041;-77
2024/02/18 09:32:58;;;;;;;10.05;5.28;;;;;;;-141.50;100.00;63355.56;5015907;28;20431;-78
2024/02/18 09:35:26;;;;;;;11.73;5.55;;;;;;;-141.50;100.00;63355.56;4992371;28;20057;-77
2024/02/18 09:37:54;;;;;;;15.13;6.00;;;;;;;-141.50;100.00;63355.56;5007276;28;20060;-75
2024/02/18 09:40:22;;;;;;;8.40;3.80;;;;;;;-141.50;100.00;63355.56;4998951;28;20050;-78
2024/02/18 09:42:50;;;;;;;7.70;3.33;;;;;;;-141.50;100.00;63355.56;5010060;28;20045;-78
2024/02/18 09:45:26;;;;;;;5.18;2.78;;;;;;;-141.50;100.00;63355.56;5008319;28;20057;-77
2024/02/18 09:47:54;;;;;;;4.90;2.30;;;;;;;-141.50;100.00;63355.56;4990375;28;20064;-77
2024/02/18 09:50:22;;;;;;;4.05;2.45;;;;;;;-141.50;100.00;63355.56;4991428;28;20062;-77
2024/02/18 09:52:50;;;;;;;4.72;2.42;;;;;;;-141.50;100.00;63355.56;5009046;28;20631;-77
2024/02/18 09:55:17;;;;;;;10.00;2.00;;;;;;;-141.50;100.00;63355.56;4992017;28;20145;-77
2024/02/18 09:57:44;;;;;;;5.18;2.50;;;;;;;-141.50;100.00;63355.56;4992451;28;20045;-77
2024/02/18 10:00:12;;;;;;;5.70;2.35;;;;;;;-141.50;100.00;63355.56;4992763;28;20516;-78
2024/02/18 10:02:41;;;;;;;4.43;2.10;;;;;;;-141.50;100.00;63355.56;5004091;28;20058;-77
2024/02/18 10:05:10;;;;;;;4.95;2.17;;;;;;;-141.50;100.00;63355.56;4990173;28;20293;-79
2024/02/18 10:07:37;;;;;;;3.08;1.88;;;;;;;-141.50;100.00;63355.56;5012619;28;20042;-79
2024/02/18 10:10:07;;;;;;;4.70;2.30;;;;;;;-141.50;100.00;63355.56;4990242;28;20461;-77
2024/02/18 10:12:34;;;;;;;3.35;2.00;;;;;;;-141.50;100.00;63355.56;5001553;28;20108;-78
2024/02/18 10:15:04;;;;;;;4.88;2.28;;;;;;;-141.50;100.00;63355.56;5009923;28;20141;-78
2024/02/18 10:17:32;;;;;;;5.00;2.17;;;;;;;-141.50;100.00;63355.56;4996495;28;20110;-78
2024/02/18 10:19:59;;;;;;;3.92;2.00;;;;;;;-141.50;100.00;63355.56;5004211;28;20054;-77
2024/02/18 10:22:26;;;;;;;4.85;2.40;;;;;;;-141.50;100.00;63355.56;5008059;28;20038;-78
2024/02/18 10:24:54;;;;;;;5.28;2.25;;;;;;;-141.50;100.00;63355.56;4990802;28;20045;-77
2024/02/18 10:27:21;;;;;;;6.82;2.53;;;;;;;-141.50;100.00;63355.56;5008778;28;20062;-78
2024/02/18 10:29:49;;;;;;;4.82;2.50;;;;;;;-141.50;100.00;63355.56;4988405;28;20101;-78
2024/02/18 10:32:16;;;;;;;5.07;2.50;;;;;;;-141.50;100.00;63355.56;5006756;28;20050;-78
2024/02/18 10:34:44;;;;;;;5.75;2.50;;;;;;;-141.50;100.00;63355.56;4991916;28;20052;-78
2024/02/18 10:37:36;;;;;;;4.65;2.40;;;;;;;-141.50;100.00;63355.56;4988377;28;20055;-79
2024/02/18 10:40:25;;;;;;;5.68;2.28;;;;;;;-141.50;100.00;63355.56;5007593;28;20064;-78
2024/02/18 10:42:58;;;;;;;6.13;2.17;;;;;;;-141.50;100.00;63355.56;5002721;28;20046;-79
2024/02/18 10:45:25;;;;;;;4.25;2.30;;;;;;;-141.50;100.00;63355.56;4990924;28;20131;-79
2024/02/18 10:47:54;;;;;;;5.53;2.45;;;;;;;-141.50;100.00;63355.56;4991839;28;20046;-79
2024/02/18 10:50:27;;;;;;;3.97;2.20;;;;;;;-141.50;100.00;63355.56;5008708;28;20061;-78
2024/02/18 10:53:04;;;;;;;4.43;2.42;;;;;;;-141.50;100.00;63355.56;5007362;28;20044;-79
2024/02/18 10:55:49;;;;;;;4.47;2.40;;;;;;;-141.50;100.00;63355.56;4991594;28;20046;-81
2024/02/18 10:58:26;;;;;;;5.68;2.58;;;;;;;-141.50;100.00;63355.56;5006206;28;20105;-80
2024/02/18 11:00:57;;;;;;;5.15;2.58;;;;;;;-141.50;100.00;63355.56;4991752;28;20518;-79
2024/02/18 11:03:33;;;;;;;3.33;2.13;;;;;;;-141.50;100.00;63355.56;5009272;28;20108;-80